Time;durP1;ratioP1;P1;durP2;ratioP2;P2;SDS_P1;SDS_P2;PMS_P1;PMS_P2;Temp;Humidity;BMP_temperature;BMP_pressure;BME280_temperature;BME280_humidity;BME280_pressure;Samples;Min_cycle;Max_cycle;Signal;HPM_P1;HPM_P2
2022/05/19 07:26:24;;;;;;;19.15;15.40;;;20.80;99.90;;;;;;5056756;28;21173;-80
2022/05/19 07:28:49;;;;;;;21.33;18.08;;;20.80;99.90;;;;;;5054645;28;20064;-81
2022/05/19 07:31:15;;;;;;;20.73;16.23;;;20.60;99.90;;;;;;5054566;28;20053;-81
2022/05/19 07:33:41;;;;;;;18.23;15.15;;;20.50;99.90;;;;;;5055072;28;20056;-81
2022/05/19 07:36:08;;;;;;;22.27;16.45;;;20.30;99.90;;;;;;5040368;28;20045;-81
2022/05/19 07:38:34;;;;;;;21.70;16.80;;;20.30;99.90;;;;;;5061910;28;20945;-80
2022/05/19 07:41:00;;;;;;;24.00;19.13;;;20.20;99.90;;;;;;5059627;28;20045;-81
2022/05/19 07:43:39;;;;;;;24.33;17.67;;;20.20;99.90;;;;;;5059538;28;20065;-80
2022/05/19 07:46:10;;;;;;;24.35;18.23;;;20.30;99.90;;;;;;5055099;28;20045;-80
2022/05/19 07:48:36;;;;;;;18.27;16.33;;;20.20;99.90;;;;;;5035067;28;20055;-79
2022/05/19 07:51:04;;;;;;;18.02;15.10;;;20.30;99.90;;;;;;5053606;28;20071;-79
2022/05/19 07:53:29;;;;;;;20.88;15.70;;;20.20;99.90;;;;;;5054150;28;20115;-78
2022/05/19 07:55:55;;;;;;;22.85;15.95;;;20.20;99.90;;;;;;5035799;28;20163;-80
2022/05/19 07:58:21;;;;;;;19.98;15.63;;;20.20;99.90;;;;;;5053837;28;20048;-80
2022/05/19 08:00:47;;;;;;;17.52;14.52;;;20.10;99.90;;;;;;5052222;28;20831;-78
2022/05/19 08:03:14;;;;;;;17.20;14.32;;;20.10;99.90;;;;;;5053275;28;20147;-79
2022/05/19 08:05:40;;;;;;;21.05;16.73;;;19.90;99.90;;;;;;5052890;28;20041;-79
2022/05/19 08:08:06;;;;;;;22.52;17.30;;;19.80;99.90;;;;;;5035727;28;20064;-80
2022/05/19 08:10:31;;;;;;;22.55;17.83;;;19.80;99.90;;;;;;5054484;28;20048;-81
2022/05/19 08:15:44;;;;;;;25.65;17.05;;;19.80;99.90;;;;;;5054261;28;20071;-79
2022/05/19 08:18:22;;;;;;;21.63;17.92;;;19.90;99.90;;;;;;5054296;28;20083;-80
2022/05/19 08:21:09;;;;;;;18.20;15.52;;;20.00;99.90;;;;;;5048351;28;20091;-78
2022/05/19 08:23:41;;;;;;;21.27;16.48;;;20.10;99.90;;;;;;5036568;28;20132;-78
2022/05/19 08:26:08;;;;;;;21.33;17.85;;;20.20;99.90;;;;;;5053667;28;20056;-78
2022/05/19 08:28:36;;;;;;;18.92;16.92;;;20.20;99.90;;;;;;5053731;28;20044;-80
2022/05/19 08:31:05;;;;;;;22.25;18.02;;;20.10;99.90;;;;;;5053312;28;20048;-77
2022/05/19 08:33:32;;;;;;;16.20;14.50;;;20.10;99.90;;;;;;5034609;28;20048;-80
2022/05/19 08:35:57;;;;;;;19.35;17.13;;;20.10;99.90;;;;;;5048873;28;20142;-77
2022/05/19 08:38:23;;;;;;;23.27;16.15;;;20.10;99.90;;;;;;5039681;28;20548;-82
2022/05/19 08:41:08;;;;;;;19.15;17.15;;;20.10;99.90;;;;;;5039899;28;20053;-82
2022/05/19 08:43:50;;;;;;;19.77;15.50;;;20.10;99.90;;;;;;5040427;28;20293;-78
2022/05/19 08:46:25;;;;;;;17.02;14.95;;;20.10;99.90;;;;;;5040470;28;20049;-80
2022/05/19 08:48:55;;;;;;;17.27;15.25;;;20.20;99.90;;;;;;5015641;28;20132;-80
2022/05/19 08:51:25;;;;;;;25.33;19.35;;;20.30;99.90;;;;;;5039596;28;20459;-80
2022/05/19 08:54:02;;;;;;;18.80;15.98;;;20.30;99.90;;;;;;5040377;28;20135;-78
2022/05/19 08:56:35;;;;;;;19.20;15.60;;;20.30;99.90;;;;;;5022316;28;20056;-77
2022/05/19 08:59:32;;;;;;;18.90;15.57;;;20.50;99.90;;;;;;5040205;28;20057;-79
2022/05/19 09:02:05;;;;;;;21.92;17.98;;;20.60;99.90;;;;;;5040290;28;20102;-80
2022/05/19 09:04:52;;;;;;;22.30;17.00;;;20.70;99.90;;;;;;5021902;28;20157;-78
2022/05/19 09:11:08;;;;;;;20.35;13.95;;;21.00;99.90;;;;;;5036520;28;20248;-81
2022/05/19 09:13:45;;;;;;;18.45;15.00;;;21.20;99.90;;;;;;5020837;28;20107;-79
2022/05/19 09:16:18;;;;;;;19.65;15.48;;;21.40;99.90;;;;;;5023932;28;20075;-79
2022/05/19 09:18:50;;;;;;;20.40;15.65;;;21.50;99.90;;;;;;5040417;28;20075;-79
2022/05/19 09:21:16;;;;;;;18.50;15.73;;;21.80;99.90;;;;;;5040962;28;20041;-79
2022/05/19 09:23:42;;;;;;;17.90;12.73;;;22.00;99.90;;;;;;5040920;28;20953;-81
2022/05/19 09:26:38;;;;;;;14.45;12.68;;;22.20;99.90;;;;;;5040563;28;20373;-79
2022/05/19 09:29:11;;;;;;;14.25;12.30;;;22.50;99.90;;;;;;5040544;28;20104;-79
2022/05/19 09:31:45;;;;;;;15.23;13.27;;;22.80;99.90;;;;;;5040615;28;20605;-80
2022/05/19 09:34:12;;;;;;;17.02;15.30;;;23.00;99.90;;;;;;5040618;28;20129;-73
2022/05/19 09:36:53;;;;;;;18.80;14.43;;;23.10;99.90;;;;;;5039676;28;20044;-73
2022/05/19 09:39:20;;;;;;;16.17;13.77;;;22.90;99.90;;;;;;5022147;28;20542;-73
2022/05/19 09:41:51;;;;;;;14.43;12.93;;;23.10;99.90;;;;;;5039935;28;20055;-73
2022/05/19 09:44:25;;;;;;;16.75;13.95;;;23.30;99.90;;;;;;5040026;28;20115;-73
2022/05/19 09:46:51;;;;;;;14.35;12.65;;;23.60;99.90;;;;;;5038928;28;20053;-73
2022/05/19 09:49:29;;;;;;;15.57;12.77;;;23.80;99.90;;;;;;5037892;28;20563;-73
2022/05/19 09:52:01;;;;;;;15.40;12.80;;;24.20;99.90;;;;;;5039488;28;20051;-73
2022/05/19 09:54:30;;;;;;;13.02;11.63;;;24.40;99.90;;;;;;5039394;28;20052;-73
2022/05/19 09:57:04;;;;;;;15.07;10.73;;;24.40;99.90;;;;;;5033218;28;20052;-72
2022/05/19 09:59:41;;;;;;;12.93;11.60;;;24.40;99.90;;;;;;5039751;28;20056;-73
2022/05/19 10:02:28;;;;;;;13.05;11.02;;;24.20;99.90;;;;;;5021348;28;20882;-73
2022/05/19 10:05:18;;;;;;;13.30;12.00;;;24.00;99.90;;;;;;5037971;28;20114;-84
2022/05/19 10:07:48;;;;;;;12.55;11.30;;;24.00;99.90;;;;;;5035835;28;20053;-83
2022/05/19 10:10:29;;;;;;;12.50;10.60;;;24.00;99.90;;;;;;5039593;28;20049;-81
2022/05/19 10:13:02;;;;;;;14.27;12.88;;;24.40;99.90;;;;;;5019670;28;20053;-81
2022/05/19 10:15:50;;;;;;;12.80;11.18;;;24.80;99.90;;;;;;5037243;28;20775;-81
2022/05/19 10:18:39;;;;;;;12.13;10.73;;;24.60;98.40;;;;;;5037567;28;20059;-77
2022/05/19 10:21:20;;;;;;;14.00;12.02;;;24.70;99.90;;;;;;5037464;28;20049;-82
2022/05/19 10:24:12;;;;;;;14.18;10.38;;;24.70;98.70;;;;;;5038043;28;20060;-79
2022/05/19 10:31:02;;;;;;;10.93;8.15;;;25.00;99.60;;;;;;5038498;28;20165;-81
2022/05/19 10:33:03;;;;;;;10.88;8.73;;;26.20;97.90;;;;;;5037449;28;20206;-82
2022/05/19 10:36:02;;;;;;;10.05;8.35;;;26.70;98.30;;;;;;5033537;28;20098;-80
2022/05/19 10:38:44;;;;;;;10.68;7.97;;;27.00;95.90;;;;;;4985615;28;20140;-79
2022/05/19 10:41:25;;;;;;;9.65;8.65;;;27.10;96.60;;;;;;5037832;28;20904;-80
2022/05/19 10:44:00;;;;;;;12.18;9.25;;;27.20;95.00;;;;;;5032695;28;20063;-81
2022/05/19 10:46:34;;;;;;;11.88;10.13;;;27.00;95.90;;;;;;5038624;28;20075;-79
2022/05/19 10:49:22;;;;;;;15.95;11.85;;;26.60;95.40;;;;;;5020431;28;20836;-81
2022/05/19 10:52:03;;;;;;;13.90;11.32;;;26.20;94.90;;;;;;5019246;28;20556;-80
2022/05/19 10:54:47;;;;;;;13.50;11.30;;;26.10;96.00;;;;;;5037596;28;20052;-81
2022/05/19 10:57:52;;;;;;;14.50;13.02;;;25.90;94.80;;;;;;5020857;28;20127;-79
2022/05/19 11:00:25;;;;;;;16.70;12.10;;;26.00;95.70;;;;;;5032737;28;20096;-81
2022/05/19 11:03:02;;;;;;;15.50;13.82;;;26.10;95.70;;;;;;5037761;28;20330;-80
2022/05/19 11:05:52;;;;;;;18.13;14.63;;;26.10;95.50;;;;;;5020982;28;20063;-79
2022/05/19 11:08:30;;;;;;;18.13;15.10;;;26.00;95.50;;;;;;5037585;28;20056;-80
2022/05/19 11:11:02;;;;;;;15.80;14.13;;;25.90;95.60;;;;;;5020487;28;20080;-79
2022/05/19 11:13:44;;;;;;;19.83;14.80;;;26.00;95.40;;;;;;5037629;28;20052;-78
2022/05/19 11:16:27;;;;;;;17.90;14.25;;;26.00;95.20;;;;;;5037400;28;20056;-80
2022/05/19 11:19:23;;;;;;;;;;;25.90;95.20;;;;;;5038003;28;20080;-79
2022/05/19 11:21:55;;;;;;;19.63;15.00;;;25.90;95.40;;;;;;5010787;28;20007;-80
2022/05/19 11:27:52;;;;;;;16.88;15.20;;;25.90;95.30;;;;;;5003052;28;20152;-79
2022/05/19 11:30:21;;;;;;;17.30;15.43;;;26.00;95.40;;;;;;5039224;28;20048;-79
2022/05/19 11:32:52;;;;;;;18.88;15.32;;;26.20;95.40;;;;;;5038970;28;20048;-79
2022/05/19 11:35:20;;;;;;;18.20;16.25;;;26.40;95.40;;;;;;5038852;28;20041;-81
2022/05/19 11:38:04;;;;;;;19.73;15.63;;;26.50;95.30;;;;;;5039352;28;20186;-79
2022/05/19 11:40:57;;;;;;;15.55;13.90;;;26.90;95.10;;;;;;5039588;28;20538;-81
2022/05/19 11:43:39;;;;;;;16.10;14.43;;;27.10;94.90;;;;;;5029309;28;20100;-82
2022/05/19 11:46:12;;;;;;;16.80;14.02;;;27.40;94.70;;;;;;5039824;28;20060;-79
2022/05/19 11:57:41;;;;;;;23.33;16.20;;;27.40;94.50;;;;;;5039126;28;19921;-80
2022/05/19 12:00:11;;;;;;;15.60;12.32;;;27.60;94.60;;;;;;5038711;28;20139;-80
2022/05/19 12:02:49;;;;;;;19.63;12.27;;;27.70;94.20;;;;;;5039581;28;20107;-80
2022/05/19 12:05:40;;;;;;;12.75;11.52;;;27.80;93.50;;;;;;5039484;28;20500;-80
2022/05/19 12:08:17;;;;;;;13.70;12.02;;;27.70;93.20;;;;;;5039323;28;20059;-83
2022/05/19 12:10:49;;;;;;;26.40;13.35;;;27.60;92.80;;;;;;5040014;28;20068;-81
2022/05/19 12:13:19;;;;;;;11.80;10.48;;;27.50;93.00;;;;;;5029104;28;20134;-79
2022/05/19 12:15:55;;;;;;;11.38;8.95;;;27.50;93.30;;;;;;5041887;28;20103;-79
2022/05/19 12:18:24;;;;;;;12.93;9.15;;;27.60;92.60;;;;;;5024946;28;20136;-81
2022/05/19 12:21:00;;;;;;;10.38;8.32;;;27.60;92.70;;;;;;5023831;28;20053;-81
2022/05/19 12:23:28;;;;;;;12.30;6.90;;;27.60;92.50;;;;;;5042817;28;20110;-82
2022/05/19 12:26:06;;;;;;;7.13;5.40;;;27.60;92.20;;;;;;5024306;28;20069;-79
2022/05/19 12:28:39;;;;;;;8.13;7.30;;;27.50;91.70;;;;;;5025350;28;20128;-81
2022/05/19 12:34:07;;;;;;;13.25;7.57;;;27.40;91.70;;;;;;5042719;28;20070;-80
2022/05/19 12:36:52;;;;;;;9.95;8.07;;;27.30;92.10;;;;;;5042152;28;20045;-80
2022/05/19 12:39:18;;;;;;;9.65;7.32;;;27.20;91.90;;;;;;5041151;28;20139;-81
2022/05/19 12:41:50;;;;;;;8.32;7.53;;;27.10;92.30;;;;;;5042158;28;20057;-81
2022/05/19 12:44:39;;;;;;;9.55;6.47;;;27.10;92.20;;;;;;5041588;28;20080;-79
2022/05/19 12:47:10;;;;;;;6.28;5.70;;;26.90;91.90;;;;;;5041267;28;20126;-80
2022/05/19 12:49:36;;;;;;;6.85;6.18;;;26.70;92.70;;;;;;5041012;28;20135;-80
2022/05/19 12:52:19;;;;;;;9.63;6.57;;;26.60;93.00;;;;;;5042000;28;20060;-81
2022/05/19 12:55:12;;;;;;;8.93;6.97;;;26.50;93.20;;;;;;5041832;28;20048;-79
2022/05/19 12:57:38;;;;;;;8.50;6.82;;;26.40;93.10;;;;;;5040713;28;20045;-79
2022/05/19 13:00:11;;;;;;;7.15;6.28;;;26.20;93.30;;;;;;5041831;28;20056;-80
2022/05/19 13:02:55;;;;;;;8.05;6.13;;;26.10;93.40;;;;;;5041426;28;20153;-79
2022/05/19 13:05:45;;;;;;;14.30;6.68;;;26.00;93.40;;;;;;5041842;28;20059;-81
2022/05/19 13:08:14;;;;;;;16.40;7.57;;;25.80;94.20;;;;;;5027810;28;20108;-81
2022/05/19 13:10:44;;;;;;;9.25;6.80;;;25.60;94.60;;;;;;5023355;28;20151;-79
2022/05/19 13:13:38;;;;;;;10.27;7.38;;;25.40;95.70;;;;;;5023385;28;20080;-81
2022/05/19 13:16:10;;;;;;;8.60;7.70;;;25.30;97.40;;;;;;5021075;28;20580;-78
2022/05/19 13:18:39;;;;;;;;;;;25.00;98.00;;;;;;5022260;28;20060;-80
2022/05/19 13:21:11;;;;;;;14.90;9.40;;;24.70;99.90;;;;;;5021371;28;19932;-78
2022/05/19 13:23:40;;;;;;;16.57;9.43;;;24.50;99.90;;;;;;5003351;28;20772;-77
2022/05/19 13:26:27;;;;;;;8.98;7.55;;;23.60;99.90;;;;;;5021210;28;20307;-83
2022/05/19 13:32:11;;;;;;;7.57;5.95;;;22.30;99.90;;;;;;5019935;28;20064;-72
2022/05/19 13:34:44;;;;;;;9.82;4.70;;;21.60;99.90;;;;;;5027051;28;20092;-70
2022/05/19 13:37:11;;;;;;;11.05;5.72;;;21.20;99.90;;;;;;5039923;28;20061;-72
2022/05/19 13:39:38;;;;;;;23.35;6.40;;;20.90;99.90;;;;;;5038496;28;20079;-71
2022/05/19 13:42:09;;;;;;;6.05;3.78;;;20.60;99.90;;;;;;5036711;28;20049;-71
2022/05/19 13:44:45;;;;;;;7.57;3.45;;;20.30;99.90;;;;;;5038517;28;20067;-72
2022/05/19 13:47:16;;;;;;;9.52;3.55;;;20.10;99.90;;;;;;5019079;28;20049;-71
2022/05/19 13:49:42;;;;;;;5.57;3.33;;;20.00;99.90;;;;;;5037235;28;20044;-73
2022/05/19 13:52:12;;;;;;;7.00;3.35;;;19.80;99.90;;;;;;5019270;28;20902;-73
2022/05/19 13:54:44;;;;;;;7.20;3.65;;;19.60;99.90;;;;;;5036056;28;20696;-73
2022/05/19 13:57:20;;;;;;;7.80;3.80;;;19.40;99.90;;;;;;5035594;28;20048;-71
2022/05/19 13:59:49;;;;;;;6.15;3.47;;;19.30;99.90;;;;;;5034826;28;20094;-72
2022/05/19 14:02:29;;;;;;;5.20;3.08;;;19.30;99.90;;;;;;5036982;28;20051;-72
2022/05/19 14:04:55;;;;;;;6.82;3.17;;;19.20;99.90;;;;;;5036369;28;20044;-72
2022/05/19 14:07:22;;;;;;;6.93;3.42;;;19.20;99.90;;;;;;5036152;28;20052;-71
2022/05/19 14:09:48;;;;;;;3.67;3.15;;;19.20;99.90;;;;;;5037276;28;20052;-71
2022/05/19 14:12:28;;;;;;;4.57;2.60;;;19.10;99.90;;;;;;5036951;28;20630;-72
2022/05/19 14:14:58;;;;;;;5.75;3.13;;;19.00;99.90;;;;;;5031734;28;20485;-71
2022/05/19 14:17:26;;;;;;;6.25;3.17;;;18.90;99.90;;;;;;5030238;28;20092;-71
2022/05/19 14:19:54;;;;;;;6.38;2.97;;;18.90;99.90;;;;;;5035854;28;20056;-71
2022/05/19 14:22:21;;;;;;;4.53;3.08;;;18.90;99.90;;;;;;5035772;28;20174;-72
2022/05/19 14:24:47;;;;;;;8.18;3.65;;;18.90;99.90;;;;;;5036129;28;20063;-72
2022/05/19 14:27:16;;;;;;;4.78;3.20;;;18.80;99.90;;;;;;5035838;28;20103;-70
2022/05/19 14:29:45;;;;;;;5.80;3.30;;;18.80;99.90;;;;;;5036314;28;20079;-72
2022/05/19 14:32:37;;;;;;;5.47;3.45;;;18.60;99.90;;;;;;5035251;28;20056;-71
2022/05/19 14:35:19;;;;;;;4.20;3.00;;;18.60;99.90;;;;;;5020517;28;20053;-72
2022/05/19 14:37:50;;;;;;;3.60;3.10;;;18.50;99.90;;;;;;5036165;28;20056;-72
2022/05/19 14:43:17;;;;;;;3.70;3.40;;;18.50;99.90;;;;;;5018275;28;20463;-71
2022/05/19 14:45:49;;;;;;;5.20;3.75;;;18.60;99.90;;;;;;5035253;28;20049;-71
2022/05/19 14:48:26;;;;;;;5.47;4.15;;;18.60;99.90;;;;;;5035095;28;20095;-71
2022/05/19 14:50:54;;;;;;;3.30;2.97;;;18.50;99.90;;;;;;5035549;28;20568;-72
2022/05/19 14:53:22;;;;;;;6.28;4.32;;;18.50;99.90;;;;;;5036415;28;20056;-71
2022/05/19 14:56:07;;;;;;;5.43;3.70;;;18.50;99.90;;;;;;5035548;28;20045;-71
2022/05/19 14:58:46;;;;;;;5.43;3.85;;;18.50;99.90;;;;;;5034911;28;20159;-70
2022/05/19 15:01:12;;;;;;;5.97;4.05;;;18.50;99.90;;;;;;5035005;28;20099;-71
2022/05/19 15:03:38;;;;;;;3.63;3.17;;;18.50;99.90;;;;;;5034927;28;20535;-70
2022/05/19 15:06:04;;;;;;;5.53;3.15;;;18.60;99.90;;;;;;5035656;28;20075;-70
2022/05/19 15:08:30;;;;;;;5.25;3.70;;;18.60;99.90;;;;;;5035895;28;20053;-71
2022/05/19 15:10:56;;;;;;;5.85;4.43;;;18.70;99.90;;;;;;5035061;28;20049;-69
2022/05/19 15:13:23;;;;;;;4.78;3.83;;;18.80;99.90;;;;;;5034767;28;20860;-70
2022/05/19 15:15:49;;;;;;;5.07;3.90;;;18.90;99.90;;;;;;5035147;28;20053;-70
2022/05/19 15:18:15;;;;;;;5.57;4.75;;;19.10;99.90;;;;;;5033877;28;20614;-69
2022/05/19 15:20:43;;;;;;;4.90;2.90;;;19.20;99.90;;;;;;5031619;28;20187;-70
2022/05/19 15:23:12;;;;;;;8.63;3.75;;;19.30;99.90;;;;;;5033354;28;20053;-70
2022/05/19 15:25:39;;;;;;;4.57;3.20;;;19.40;99.90;;;;;;5011423;28;20049;-70
2022/05/19 15:28:05;;;;;;;5.03;3.53;;;19.20;99.90;;;;;;5033583;28;20856;-70
2022/05/19 15:30:34;;;;;;;9.20;3.50;;;19.60;99.90;;;;;;5031145;28;20107;-71
2022/05/19 15:33:01;;;;;;;3.92;3.38;;;19.80;99.90;;;;;;5030058;28;20779;-70
2022/05/19 15:35:28;;;;;;;4.07;3.65;;;20.00;99.90;;;;;;5029090;28;20055;-70
2022/05/19 15:37:54;;;;;;;3.97;3.58;;;20.50;99.90;;;;;;5030771;28;20049;-70
2022/05/19 15:40:21;;;;;;;6.55;4.13;;;20.20;99.90;;;;;;5031265;28;20484;-70
2022/05/19 15:42:47;;;;;;;6.90;4.00;;;20.60;99.90;;;;;;5015726;28;20081;-71
2022/05/19 15:45:13;;;;;;;4.38;3.42;;;20.60;99.90;;;;;;5033653;28;20045;-71
2022/05/19 15:47:51;;;;;;;5.72;3.35;;;20.80;99.90;;;;;;5035416;28;20515;-70
2022/05/19 15:50:24;;;;;;;7.30;5.45;;;20.60;99.90;;;;;;5032244;28;20152;-70
2022/05/19 15:52:53;;;;;;;;;;;20.60;99.90;;;;;;5037371;28;20084;-70
2022/05/19 15:55:19;;;;;;;8.00;5.32;;;20.50;99.90;;;;;;5037401;28;20031;-70
2022/05/19 15:57:44;;;;;;;6.97;5.28;;;20.70;99.90;;;;;;5036118;28;20210;-70
2022/05/19 16:00:12;;;;;;;8.48;5.25;;;20.80;99.90;;;;;;5036299;28;20052;-71
2022/05/19 16:02:41;;;;;;;7.36;5.26;;;20.90;99.90;;;;;;4686259;28;10001242;-70
2022/05/19 16:05:09;;;;;;;6.57;5.00;;;20.90;99.90;;;;;;5029419;28;20118;-72
2022/05/19 16:07:36;;;;;;;6.15;4.70;;;21.00;99.90;;;;;;5032073;28;20051;-72
2022/05/19 16:10:03;;;;;;;7.93;5.57;;;21.00;99.90;;;;;;5032372;28;20045;-70
2022/05/19 16:12:30;;;;;;;6.03;4.60;;;19.50;99.90;;;;;;5015315;28;20290;-70
2022/05/19 16:14:56;;;;;;;5.57;4.25;;;20.60;99.90;;;;;;5034054;28;20045;-71
2022/05/19 16:17:22;;;;;;;5.38;4.65;;;21.10;99.90;;;;;;5032980;28;20067;-70
2022/05/19 16:19:48;;;;;;;4.32;3.67;;;20.90;99.90;;;;;;5034178;28;20072;-71
2022/05/19 16:22:21;;;;;;;5.35;3.92;;;20.90;99.90;;;;;;5033734;28;20064;-72
2022/05/19 16:24:48;;;;;;;5.85;4.25;;;20.90;99.90;;;;;;5032955;28;20052;-70
2022/05/19 16:27:14;;;;;;;4.22;3.45;;;21.00;99.90;;;;;;5033123;28;20504;-70
2022/05/19 16:29:40;;;;;;;4.85;3.42;;;21.00;99.90;;;;;;5031787;28;20044;-70
2022/05/19 16:32:05;;;;;;;3.97;3.60;;;21.10;99.90;;;;;;5029359;28;20045;-70
2022/05/19 16:34:32;;;;;;;3.90;3.50;;;21.10;99.90;;;;;;5031735;28;20148;-70
2022/05/19 16:37:01;;;;;;;5.80;3.47;;;21.10;99.90;;;;;;5032848;28;20112;-70
2022/05/19 16:39:28;;;;;;;5.53;4.18;;;21.10;99.90;;;;;;5029131;28;20049;-70
2022/05/19 16:41:54;;;;;;;4.13;3.55;;;21.20;99.90;;;;;;5032180;28;20059;-71
2022/05/19 16:44:20;;;;;;;4.68;4.13;;;21.20;99.90;;;;;;5031254;28;20463;-71
2022/05/19 16:46:46;;;;;;;3.78;3.00;;;21.30;99.90;;;;;;5031002;28;20079;-71
2022/05/19 16:49:15;;;;;;;4.97;3.53;;;21.20;99.90;;;;;;5033070;28;20049;-70
2022/05/19 16:51:41;;;;;;;5.78;3.10;;;21.20;99.90;;;;;;5031141;28;20839;-70
2022/05/19 16:59:36;;;;;;;3.53;2.80;;;21.20;99.90;;;;;;5012844;28;20088;-71
2022/05/19 17:02:02;;;;;;;4.70;2.83;;;21.40;99.90;;;;;;5029988;28;20052;-70
2022/05/19 17:04:28;;;;;;;2.95;2.70;;;21.40;99.90;;;;;;5031216;28;20540;-70
2022/05/19 17:06:54;;;;;;;2.90;2.53;;;21.60;99.90;;;;;;5031564;28;20060;-70
2022/05/19 17:09:21;;;;;;;3.38;3.08;;;21.50;99.90;;;;;;5033215;28;20052;-70
2022/05/19 17:11:47;;;;;;;3.55;3.03;;;21.50;99.90;;;;;;5027560;28;20409;-70
2022/05/19 17:14:14;;;;;;;3.80;2.88;;;21.40;99.90;;;;;;5031587;28;20516;-70
2022/05/19 17:16:40;;;;;;;3.42;2.63;;;21.30;99.90;;;;;;5030375;28;20048;-70
2022/05/19 17:19:06;;;;;;;4.15;2.63;;;21.30;99.90;;;;;;5030353;28;20040;-69
2022/05/19 17:21:33;;;;;;;4.78;3.05;;;21.30;99.90;;;;;;5032069;28;20132;-70
2022/05/19 17:23:59;;;;;;;3.47;2.63;;;21.20;99.90;;;;;;5003122;28;20052;-70
2022/05/19 17:26:25;;;;;;;4.93;2.88;;;21.30;99.90;;;;;;5034232;28;20088;-73
2022/05/19 17:28:51;;;;;;;3.90;3.28;;;21.20;99.90;;;;;;5036945;28;20060;-73
2022/05/19 17:31:17;;;;;;;3.35;2.90;;;21.20;99.90;;;;;;5037458;28;20052;-73
2022/05/19 17:33:43;;;;;;;3.10;2.80;;;21.10;99.90;;;;;;5036823;28;20583;-73
2022/05/19 17:36:10;;;;;;;3.08;2.75;;;21.00;99.90;;;;;;5032223;28;20120;-73
2022/05/19 17:38:38;;;;;;;3.13;2.42;;;21.00;99.90;;;;;;5037086;28;20052;-72
2022/05/19 17:41:06;;;;;;;3.55;2.85;;;21.30;99.90;;;;;;5020060;28;20103;-74
2022/05/19 17:43:32;;;;;;;2.92;2.63;;;20.80;99.90;;;;;;5038053;28;20056;-73
2022/05/19 17:45:59;;;;;;;4.60;3.40;;;20.70;99.90;;;;;;5037345;28;20041;-73
2022/05/19 17:48:25;;;;;;;2.60;2.40;;;20.60;99.90;;;;;;5037412;28;20053;-69
2022/05/19 17:50:53;;;;;;;3.00;2.70;;;20.60;99.90;;;;;;5036379;28;20448;-70
2022/05/19 17:53:19;;;;;;;6.97;3.47;;;20.60;99.90;;;;;;5030667;28;20611;-70
2022/05/19 17:55:47;;;;;;;6.32;4.15;;;20.60;99.90;;;;;;5036870;28;20064;-70
2022/05/19 17:58:14;;;;;;;9.98;5.03;;;20.60;99.90;;;;;;5037603;28;20114;-70
2022/05/19 18:00:41;;;;;;;6.38;5.57;;;20.60;99.90;;;;;;5030429;28;20059;-70
2022/05/19 18:03:06;;;;;;;7.60;6.90;;;20.60;99.90;;;;;;5037031;28;20099;-70
2022/05/19 18:05:32;;;;;;;9.30;8.27;;;20.50;99.90;;;;;;5037234;28;20563;-70
2022/05/19 18:07:58;;;;;;;10.60;9.60;;;20.40;99.90;;;;;;5036864;28;20045;-71
2022/05/19 18:10:28;;;;;;;15.38;10.02;;;20.20;99.90;;;;;;5036676;28;20799;-72
2022/05/19 18:12:54;;;;;;;11.65;10.38;;;20.00;99.90;;;;;;5037081;28;20068;-70
2022/05/19 18:18:22;;;;;;;14.85;11.20;;;19.90;99.90;;;;;;5030698;28;20055;-70
2022/05/19 18:20:54;;;;;;;14.68;11.60;;;19.70;99.90;;;;;;5033511;28;20079;-70
2022/05/19 18:23:20;;;;;;;17.08;13.70;;;19.70;99.90;;;;;;5035498;28;20067;-71
2022/05/19 18:25:51;;;;;;;14.68;12.40;;;19.50;99.90;;;;;;5035534;28;20056;-71
2022/05/19 18:28:16;;;;;;;16.42;12.90;;;19.30;99.90;;;;;;5035617;28;20049;-70
2022/05/19 18:30:42;;;;;;;20.02;13.07;;;19.20;99.90;;;;;;5032781;28;20040;-70
2022/05/19 18:33:10;;;;;;;18.55;13.45;;;19.10;99.90;;;;;;5018109;28;20794;-70
2022/05/19 18:35:36;;;;;;;16.48;13.23;;;19.10;99.90;;;;;;5036291;28;20083;-70
2022/05/19 18:38:03;;;;;;;17.95;14.13;;;19.10;99.90;;;;;;5033011;28;20477;-69
2022/05/19 18:45:58;;;;;;;15.00;12.52;;;18.90;99.90;;;;;;5034961;28;20044;-70
2022/05/19 18:48:24;;;;;;;21.75;15.18;;;18.90;99.90;;;;;;5035427;28;20049;-70
2022/05/19 18:50:50;;;;;;;14.18;12.68;;;18.80;99.90;;;;;;5034113;28;20417;-71
2022/05/19 18:53:15;;;;;;;18.50;13.90;;;18.70;99.90;;;;;;5034604;28;20048;-70
2022/05/19 18:55:42;;;;;;;17.00;13.98;;;18.60;99.90;;;;;;5034231;28;20045;-70
2022/05/19 18:58:08;;;;;;;16.58;14.75;;;18.50;99.90;;;;;;5015393;28;20128;-71
2022/05/19 19:00:35;;;;;;;17.35;13.73;;;18.40;99.90;;;;;;5035072;28;20071;-70
2022/05/19 19:03:01;;;;;;;19.80;13.70;;;18.40;99.90;;;;;;5016647;28;20045;-70
2022/05/19 19:05:26;;;;;;;19.30;13.00;;;18.30;99.90;;;;;;5033309;28;20055;-70
2022/05/19 19:07:52;;;;;;;19.45;14.80;;;18.30;99.90;;;;;;5033852;28;20037;-71
2022/05/19 19:10:21;;;;;;;18.20;13.95;;;18.20;99.90;;;;;;5033458;28;20638;-70
2022/05/19 19:12:47;;;;;;;16.45;13.45;;;17.20;99.90;;;;;;5033085;28;20079;-70
2022/05/19 19:15:13;;;;;;;16.55;12.77;;;18.10;99.90;;;;;;5032791;28;20061;-70
2022/05/19 19:17:39;;;;;;;15.93;13.13;;;18.00;99.90;;;;;;5013259;28;20052;-70
2022/05/19 19:20:06;;;;;;;14.40;12.35;;;18.00;99.90;;;;;;5032303;28;20048;-70
2022/05/19 19:22:32;;;;;;;15.00;11.73;;;18.10;99.90;;;;;;5032458;28;20095;-70
2022/05/19 19:24:58;;;;;;;18.02;13.23;;;18.00;99.90;;;;;;5009998;28;20136;-71
2022/05/19 19:27:24;;;;;;;16.42;13.35;;;18.00;99.90;;;;;;5032843;28;20090;-71
2022/05/19 19:29:50;;;;;;;19.60;13.15;;;17.90;99.90;;;;;;5032762;28;20134;-71
2022/05/19 19:32:16;;;;;;;14.07;11.88;;;17.90;99.90;;;;;;5033075;28;20140;-70
2022/05/19 19:34:42;;;;;;;16.13;11.82;;;17.90;99.90;;;;;;5032047;28;20103;-70
2022/05/19 19:37:08;;;;;;;14.40;11.68;;;17.80;99.90;;;;;;5034357;28;20807;-70
2022/05/19 19:39:34;;;;;;;14.48;11.15;;;17.70;99.90;;;;;;5034635;28;20902;-71
2022/05/19 19:41:59;;;;;;;16.42;11.43;;;17.60;99.90;;;;;;5016171;28;20072;-70
2022/05/19 19:44:25;;;;;;;14.07;10.82;;;17.60;99.90;;;;;;5034292;28;20045;-70
2022/05/19 19:46:51;;;;;;;16.02;11.50;;;17.50;99.90;;;;;;5034308;28;20041;-70
2022/05/19 19:49:17;;;;;;;19.52;11.32;;;17.40;99.90;;;;;;5014001;28;20140;-70
2022/05/19 19:52:00;;;;;;;17.75;12.13;;;17.40;99.90;;;;;;5035263;28;20069;-70
2022/05/19 19:54:35;;;;;;;20.10;14.60;;;17.30;99.90;;;;;;5034240;28;20044;-70
2022/05/19 19:57:04;;;;;;;19.65;14.40;;;17.20;99.90;;;;;;5033407;28;20064;-70
2022/05/19 19:59:33;;;;;;;20.13;14.95;;;17.10;99.90;;;;;;5034566;28;20098;-70
2022/05/19 20:02:00;;;;;;;24.88;15.77;;;17.10;99.90;;;;;;5032470;28;20126;-70
2022/05/19 20:04:26;;;;;;;19.13;16.38;;;17.00;99.90;;;;;;5034342;28;20875;-70
2022/05/19 20:06:52;;;;;;;22.10;14.90;;;17.00;99.90;;;;;;5034902;28;20190;-70
2022/05/19 20:09:20;;;;;;;18.58;15.15;;;16.90;99.90;;;;;;5034676;28;20049;-70
2022/05/19 20:11:46;;;;;;;24.90;17.90;;;16.90;99.90;;;;;;5034289;28;20091;-70
2022/05/19 20:14:12;;;;;;;19.05;16.10;;;16.90;99.90;;;;;;5031293;28;20135;-70
2022/05/19 20:16:38;;;;;;;19.98;17.73;;;16.90;99.90;;;;;;5034014;28;20040;-71
2022/05/19 20:19:06;;;;;;;19.25;15.40;;;16.80;99.90;;;;;;5034165;28;20045;-71
2022/05/19 20:21:33;;;;;;;21.63;18.02;;;16.80;99.90;;;;;;5030482;28;20045;-70
2022/05/19 20:23:59;;;;;;;24.95;18.52;;;16.80;99.90;;;;;;5032573;28;20049;-71
2022/05/19 20:26:26;;;;;;;22.30;17.10;;;16.80;99.90;;;;;;5012043;28;20052;-71
2022/05/19 20:28:52;;;;;;;21.08;17.55;;;16.70;99.90;;;;;;5012528;28;20125;-71
2022/05/19 20:31:18;;;;;;;21.58;18.75;;;16.60;99.90;;;;;;5012081;28;20057;-71
2022/05/19 20:33:44;;;;;;;20.70;17.98;;;16.60;99.90;;;;;;5016712;28;20623;-70
2022/05/19 20:36:11;;;;;;;21.33;18.23;;;16.50;99.90;;;;;;5018032;28;20038;-71
2022/05/19 20:38:37;;;;;;;23.20;17.90;;;16.50;99.90;;;;;;5017099;28;20048;-70
2022/05/19 20:41:05;;;;;;;22.40;17.35;;;16.50;99.90;;;;;;5015198;28;20049;-70
2022/05/19 20:43:31;;;;;;;23.73;17.95;;;16.50;99.90;;;;;;5018122;28;20155;-72
2022/05/19 20:45:58;;;;;;;19.70;16.77;;;16.50;99.90;;;;;;5017323;28;20041;-70
2022/05/19 20:48:24;;;;;;;20.83;15.98;;;16.50;99.90;;;;;;5017481;28;20049;-70
2022/05/19 20:50:51;;;;;;;19.33;17.23;;;16.50;99.90;;;;;;5017298;28;20083;-71
2022/05/19 20:53:18;;;;;;;19.08;16.17;;;16.50;99.90;;;;;;5018570;28;20052;-71
2022/05/19 20:55:44;;;;;;;18.65;16.00;;;16.40;99.90;;;;;;5019438;28;20395;-71
2022/05/19 20:58:10;;;;;;;23.60;16.02;;;16.40;99.90;;;;;;5016230;28;20568;-71
2022/05/19 21:00:36;;;;;;;19.60;16.08;;;16.10;99.90;;;;;;5017327;28;20045;-71
2022/05/19 21:03:02;;;;;;;21.42;14.48;;;16.20;99.90;;;;;;5016480;28;20054;-72
2022/05/19 21:05:28;;;;;;;17.30;14.75;;;16.20;99.90;;;;;;5013284;28;20559;-71